Terminal Aerodrome Forecast
Issued by NWS

Home | Current Version | Previous Version | Graphics & Text | Print | Product List | Glossary On
Versions: 1 2 3 4 5 6 7 8 9 10 11 12 13 14 15
000
FTUS43 KIWX 051400 AAA
TAFSBN
TAF AMD
KSBN 051415Z 0514/0612 30004KT P6SM SCT025 BKN040
      TEMPO 0514/0518 6SM -SHSN BKN025
     FM051800 31008KT P6SM BKN040
     FM060100 24004KT P6SM SCT040
     FM061000 20006KT P6SM SCT250=

USA.gov is the U.S. government's official web portal to all federal, state and local government web resources and services.